Hespeler, Canada
Current Conditions -  °F | °C
As of 6:15 AM on Sunday 23 Nov 2014 (Local Time) from CYKF Reporting Station
Overcast Overcast  
Wind Chill: 37°   Ceiling: 3600
Heat Index: 41°   Visibility: 9mi
Dew Point: 39°   Wind: 6mph
Humidity: 93%   Direction: 190°S
Pressure: 29.94"   Gusts: NA
Location:  43.43°N, 80.32°W
Report Text: CYKF 231115Z AUTO 19005KT 9SM SCT020 BKN036 OVC045 05/04 A2994 RMK SLP149
Loading
Personal Weather Stations






























Interactive Weather Map New forecast layout! Learn more

10-Day Weather Forecast

Advertisements
Track Severe Weather on mobile